sensor_id;sensor_type;location;lat;lon;timestamp;temperature;humidity
13699;DHT22;6921;53.642;9.956;2022-09-09T00:02:13;14.80;99.90
13699;DHT22;6921;53.642;9.956;2022-09-09T00:04:26;14.80;99.90
13699;DHT22;6921;53.642;9.956;2022-09-09T00:06:33;14.70;99.90
13699;DHT22;6921;53.642;9.956;2022-09-09T00:08:48;14.80;99.90
13699;DHT22;6921;53.642;9.956;2022-09-09T00:10:58;14.80;99.90
13699;DHT22;6921;53.642;9.956;2022-09-09T00:13:09;14.80;99.90
13699;DHT22;6921;53.642;9.956;2022-09-09T00:15:16;14.80;99.90
13699;DHT22;6921;53.642;9.956;2022-09-09T00:17:30;14.80;99.90
13699;DHT22;6921;53.642;9.956;2022-09-09T00:19:39;14.80;99.90
13699;DHT22;6921;53.642;9.956;2022-09-09T00:21:50;14.80;99.90
13699;DHT22;6921;53.642;9.956;2022-09-09T00:26:04;14.90;99.90
13699;DHT22;6921;53.642;9.956;2022-09-09T00:28:14;14.90;99.90
13699;DHT22;6921;53.642;9.956;2022-09-09T00:30:20;14.90;99.90
13699;DHT22;6921;53.642;9.956;2022-09-09T00:32:28;15.00;99.90
13699;DHT22;6921;53.642;9.956;2022-09-09T00:34:32;15.00;99.90
13699;DHT22;6921;53.642;9.956;2022-09-09T00:38:43;14.90;99.90
13699;DHT22;6921;53.642;9.956;2022-09-09T00:40:50;14.90;99.90
13699;DHT22;6921;53.642;9.956;2022-09-09T00:43:07;14.90;99.90
13699;DHT22;6921;53.642;9.956;2022-09-09T00:45:26;14.80;99.90
13699;DHT22;6921;53.642;9.956;2022-09-09T00:47:40;14.80;99.90
13699;DHT22;6921;53.642;9.956;2022-09-09T00:49:54;14.80;99.90
13699;DHT22;6921;53.642;9.956;2022-09-09T00:52:12;14.80;99.90
13699;DHT22;6921;53.642;9.956;2022-09-09T00:54:40;14.70;99.90
13699;DHT22;6921;53.642;9.956;2022-09-09T00:56:53;14.70;99.90
13699;DHT22;6921;53.642;9.956;2022-09-09T00:59:03;14.70;99.90
13699;DHT22;6921;53.642;9.956;2022-09-09T01:01:10;14.70;99.90
13699;DHT22;6921;53.642;9.956;2022-09-09T01:03:21;14.70;99.90
13699;DHT22;6921;53.642;9.956;2022-09-09T01:05:33;14.70;99.90
13699;DHT22;6921;53.642;9.956;2022-09-09T01:09:54;14.70;99.90
13699;DHT22;6921;53.642;9.956;2022-09-09T01:12:03;14.80;99.90
13699;DHT22;6921;53.642;9.956;2022-09-09T01:14:20;14.70;99.90
13699;DHT22;6921;53.642;9.956;2022-09-09T01:16:26;14.70;99.90
13699;DHT22;6921;53.642;9.956;2022-09-09T01:18:33;14.70;99.90
13699;DHT22;6921;53.642;9.956;2022-09-09T01:20:42;14.80;99.90
13699;DHT22;6921;53.642;9.956;2022-09-09T01:22:57;14.80;99.90
13699;DHT22;6921;53.642;9.956;2022-09-09T01:25:22;14.80;99.90
13699;DHT22;6921;53.642;9.956;2022-09-09T01:27:30;14.80;99.90
13699;DHT22;6921;53.642;9.956;2022-09-09T01:31:40;14.80;99.90
13699;DHT22;6921;53.642;9.956;2022-09-09T01:35:50;14.90;99.90
13699;DHT22;6921;53.642;9.956;2022-09-09T01:42:03;14.90;99.90
13699;DHT22;6921;53.642;9.956;2022-09-09T01:44:08;14.80;99.90
13699;DHT22;6921;53.642;9.956;2022-09-09T01:54:27;14.90;99.90
13699;DHT22;6921;53.642;9.956;2022-09-09T01:56:39;14.90;99.90
13699;DHT22;6921;53.642;9.956;2022-09-09T01:58:52;14.80;99.90
13699;DHT22;6921;53.642;9.956;2022-09-09T02:01:04;14.80;99.90
13699;DHT22;6921;53.642;9.956;2022-09-09T02:03:15;14.80;99.90
13699;DHT22;6921;53.642;9.956;2022-09-09T02:05:30;14.80;99.90
13699;DHT22;6921;53.642;9.956;2022-09-09T02:07:39;14.80;99.90
13699;DHT22;6921;53.642;9.956;2022-09-09T02:09:45;14.80;99.90
13699;DHT22;6921;53.642;9.956;2022-09-09T02:11:53;14.80;99.90
13699;DHT22;6921;53.642;9.956;2022-09-09T02:14:00;14.70;99.90
13699;DHT22;6921;53.642;9.956;2022-09-09T02:16:07;14.70;99.90
13699;DHT22;6921;53.642;9.956;2022-09-09T02:18:12;14.70;99.90
13699;DHT22;6921;53.642;9.956;2022-09-09T02:20:18;14.90;99.90
13699;DHT22;6921;53.642;9.956;2022-09-09T02:22:24;14.70;99.90
13699;DHT22;6921;53.642;9.956;2022-09-09T02:24:30;14.70;99.90
13699;DHT22;6921;53.642;9.956;2022-09-09T02:26:37;14.70;99.90
13699;DHT22;6921;53.642;9.956;2022-09-09T02:30:45;14.70;99.90
13699;DHT22;6921;53.642;9.956;2022-09-09T02:32:52;14.70;99.90
13699;DHT22;6921;53.642;9.956;2022-09-09T02:35:01;14.70;99.90
13699;DHT22;6921;53.642;9.956;2022-09-09T02:37:06;14.70;99.90
13699;DHT22;6921;53.642;9.956;2022-09-09T02:45:25;14.60;99.90
13699;DHT22;6921;53.642;9.956;2022-09-09T02:47:36;14.60;99.90
13699;DHT22;6921;53.642;9.956;2022-09-09T02:49:51;14.60;99.90
13699;DHT22;6921;53.642;9.956;2022-09-09T02:52:01;14.50;99.90
13699;DHT22;6921;53.642;9.956;2022-09-09T02:54:10;14.60;99.90
13699;DHT22;6921;53.642;9.956;2022-09-09T02:56:16;14.50;99.90
13699;DHT22;6921;53.642;9.956;2022-09-09T03:00:24;14.50;99.90
13699;DHT22;6921;53.642;9.956;2022-09-09T03:06:35;14.40;99.90
13699;DHT22;6921;53.642;9.956;2022-09-09T03:23:06;14.30;99.90
13699;DHT22;6921;53.642;9.956;2022-09-09T03:39:38;14.10;99.90
13699;DHT22;6921;53.642;9.956;2022-09-09T03:56:08;13.90;99.90
13699;DHT22;6921;53.642;9.956;2022-09-09T03:58:11;13.80;99.90
13699;DHT22;6921;53.642;9.956;2022-09-09T04:06:24;13.70;99.90
13699;DHT22;6921;53.642;9.956;2022-09-09T04:12:39;13.60;99.90
13699;DHT22;6921;53.642;9.956;2022-09-09T04:20:52;13.60;99.90
13699;DHT22;6921;53.642;9.956;2022-09-09T04:29:07;13.50;99.90
13699;DHT22;6921;53.642;9.956;2022-09-09T04:31:12;13.50;99.90
13699;DHT22;6921;53.642;9.956;2022-09-09T04:39:29;13.50;99.90
13699;DHT22;6921;53.642;9.956;2022-09-09T04:45:46;13.50;99.90
13699;DHT22;6921;53.642;9.956;2022-09-09T04:56:04;13.50;99.90
13699;DHT22;6921;53.642;9.956;2022-09-09T05:00:12;13.70;99.90
13699;DHT22;6921;53.642;9.956;2022-09-09T05:02:16;13.70;99.90
13699;DHT22;6921;53.642;9.956;2022-09-09T05:18:44;13.80;99.90
13699;DHT22;6921;53.642;9.956;2022-09-09T05:22:52;13.80;99.90
13699;DHT22;6921;53.642;9.956;2022-09-09T05:31:09;17.30;99.90
13699;DHT22;6921;53.642;9.956;2022-09-09T05:35:17;13.80;99.90
13699;DHT22;6921;53.642;9.956;2022-09-09T05:51:47;13.90;99.90
13699;DHT22;6921;53.642;9.956;2022-09-09T05:56:01;13.90;99.90
13699;DHT22;6921;53.642;9.956;2022-09-09T06:00:09;13.80;99.90
13699;DHT22;6921;53.642;9.956;2022-09-09T06:06:21;14.00;99.90
13699;DHT22;6921;53.642;9.956;2022-09-09T06:08:25;14.10;99.90
13699;DHT22;6921;53.642;9.956;2022-09-09T06:20:54;14.40;99.90
13699;DHT22;6921;53.642;9.956;2022-09-09T06:25:02;14.50;99.90
13699;DHT22;6921;53.642;9.956;2022-09-09T06:31:14;14.60;99.90
13699;DHT22;6921;53.642;9.956;2022-09-09T06:53:55;15.00;99.90
13699;DHT22;6921;53.642;9.956;2022-09-09T06:58:07;15.20;99.90
13699;DHT22;6921;53.642;9.956;2022-09-09T07:00:12;15.40;99.90
13699;DHT22;6921;53.642;9.956;2022-09-09T07:06:23;15.50;99.90
13699;DHT22;6921;53.642;9.956;2022-09-09T07:31:16;16.30;99.90
13699;DHT22;6921;53.642;9.956;2022-09-09T07:41:34;16.20;99.90
13699;DHT22;6921;53.642;9.956;2022-09-09T07:47:46;16.20;99.90
13699;DHT22;6921;53.642;9.956;2022-09-09T07:53:57;16.30;99.90
13699;DHT22;6921;53.642;9.956;2022-09-09T07:56:05;16.30;99.90
13699;DHT22;6921;53.642;9.956;2022-09-09T08:00:13;16.30;99.90
13699;DHT22;6921;53.642;9.956;2022-09-09T08:04:23;16.30;99.90
13699;DHT22;6921;53.642;9.956;2022-09-09T08:06:28;16.40;99.90
13699;DHT22;6921;53.642;9.956;2022-09-09T08:21:07;16.60;99.90
13699;DHT22;6921;53.642;9.956;2022-09-09T08:27:18;16.60;99.90
13699;DHT22;6921;53.642;9.956;2022-09-09T08:31:26;16.80;99.90
13699;DHT22;6921;53.642;9.956;2022-09-09T08:35:32;17.10;99.90
13699;DHT22;6921;53.642;9.956;2022-09-09T08:37:37;16.80;99.90
13699;DHT22;6921;53.642;9.956;2022-09-09T08:41:55;16.90;99.90
13699;DHT22;6921;53.642;9.956;2022-09-09T08:44:07;16.70;99.90
13699;DHT22;6921;53.642;9.956;2022-09-09T08:46:17;17.10;99.90
13699;DHT22;6921;53.642;9.956;2022-09-09T08:48:37;17.20;99.90
13699;DHT22;6921;53.642;9.956;2022-09-09T08:52:54;17.20;99.90
13699;DHT22;6921;53.642;9.956;2022-09-09T08:55:15;17.20;99.90
13699;DHT22;6921;53.642;9.956;2022-09-09T08:57:23;17.30;99.90
13699;DHT22;6921;53.642;9.956;2022-09-09T08:59:28;17.20;99.90
13699;DHT22;6921;53.642;9.956;2022-09-09T09:01:45;17.30;99.90
13699;DHT22;6921;53.642;9.956;2022-09-09T09:03:57;17.40;99.90
13699;DHT22;6921;53.642;9.956;2022-09-09T09:06:06;17.50;99.90
13699;DHT22;6921;53.642;9.956;2022-09-09T09:08:20;17.60;99.90
13699;DHT22;6921;53.642;9.956;2022-09-09T09:10:38;17.60;99.90
13699;DHT22;6921;53.642;9.956;2022-09-09T09:12:44;17.60;99.90
13699;DHT22;6921;53.642;9.956;2022-09-09T09:14:49;17.70;99.90
13699;DHT22;6921;53.642;9.956;2022-09-09T09:16:54;17.70;99.90
13699;DHT22;6921;53.642;9.956;2022-09-09T09:18:59;17.60;99.90
13699;DHT22;6921;53.642;9.956;2022-09-09T09:21:07;17.70;99.90
13699;DHT22;6921;53.642;9.956;2022-09-09T09:23:21;17.80;99.90
13699;DHT22;6921;53.642;9.956;2022-09-09T09:25:29;17.80;99.90
13699;DHT22;6921;53.642;9.956;2022-09-09T09:27:36;17.80;99.90
13699;DHT22;6921;53.642;9.956;2022-09-09T09:29:43;17.90;99.90
13699;DHT22;6921;53.642;9.956;2022-09-09T09:32:10;17.90;99.90
13699;DHT22;6921;53.642;9.956;2022-09-09T09:34:15;17.90;99.90
13699;DHT22;6921;53.642;9.956;2022-09-09T09:36:19;17.90;99.90
13699;DHT22;6921;53.642;9.956;2022-09-09T09:38:25;17.90;99.90
13699;DHT22;6921;53.642;9.956;2022-09-09T09:40:50;18.10;99.90
13699;DHT22;6921;53.642;9.956;2022-09-09T09:43:00;18.00;99.90
13699;DHT22;6921;53.642;9.956;2022-09-09T09:45:08;18.00;99.90
13699;DHT22;6921;53.642;9.956;2022-09-09T09:47:13;18.10;99.90
13699;DHT22;6921;53.642;9.956;2022-09-09T09:51:21;18.20;99.90
13699;DHT22;6921;53.642;9.956;2022-09-09T09:53:28;18.20;99.90
13699;DHT22;6921;53.642;9.956;2022-09-09T09:55:33;18.30;99.90
13699;DHT22;6921;53.642;9.956;2022-09-09T09:59:42;18.20;99.90
13699;DHT22;6921;53.642;9.956;2022-09-09T10:03:51;18.50;99.90
13699;DHT22;6921;53.642;9.956;2022-09-09T10:05:55;18.60;99.90
13699;DHT22;6921;53.642;9.956;2022-09-09T10:08:04;18.70;99.90
13699;DHT22;6921;53.642;9.956;2022-09-09T10:10:13;18.80;99.90
13699;DHT22;6921;53.642;9.956;2022-09-09T10:12:25;19.00;99.90
13699;DHT22;6921;53.642;9.956;2022-09-09T10:14:37;19.10;99.90
13699;DHT22;6921;53.642;9.956;2022-09-09T10:16:55;19.00;99.90
13699;DHT22;6921;53.642;9.956;2022-09-09T10:19:04;19.00;99.90
13699;DHT22;6921;53.642;9.956;2022-09-09T10:21:16;19.10;99.90
13699;DHT22;6921;53.642;9.956;2022-09-09T10:23:44;19.20;99.90
13699;DHT22;6921;53.642;9.956;2022-09-09T10:26:06;19.30;99.90
13699;DHT22;6921;53.642;9.956;2022-09-09T10:28:25;19.60;99.90
13699;DHT22;6921;53.642;9.956;2022-09-09T10:30:37;19.70;99.90
13699;DHT22;6921;53.642;9.956;2022-09-09T10:32:48;20.00;99.90
13699;DHT22;6921;53.642;9.956;2022-09-09T10:35:01;20.30;99.90
13699;DHT22;6921;53.642;9.956;2022-09-09T10:37:15;20.60;99.90
13699;DHT22;6921;53.642;9.956;2022-09-09T10:39:32;21.00;99.90
13699;DHT22;6921;53.642;9.956;2022-09-09T10:41:46;21.10;99.90
13699;DHT22;6921;53.642;9.956;2022-09-09T10:44:09;21.20;99.90
13699;DHT22;6921;53.642;9.956;2022-09-09T10:46:22;21.20;99.90
13699;DHT22;6921;53.642;9.956;2022-09-09T10:48:35;21.20;99.90
13699;DHT22;6921;53.642;9.956;2022-09-09T10:50:50;21.30;99.90
13699;DHT22;6921;53.642;9.956;2022-09-09T10:53:09;21.40;99.90
13699;DHT22;6921;53.642;9.956;2022-09-09T10:55:18;21.40;99.90
13699;DHT22;6921;53.642;9.956;2022-09-09T10:57:31;21.10;99.90
13699;DHT22;6921;53.642;9.956;2022-09-09T10:59:39;21.20;99.90
13699;DHT22;6921;53.642;9.956;2022-09-09T11:01:46;21.00;99.90
13699;DHT22;6921;53.642;9.956;2022-09-09T11:03:55;21.10;99.90
13699;DHT22;6921;53.642;9.956;2022-09-09T11:06:01;21.10;99.90
13699;DHT22;6921;53.642;9.956;2022-09-09T11:08:12;21.00;99.90
13699;DHT22;6921;53.642;9.956;2022-09-09T11:10:23;21.00;99.90
13699;DHT22;6921;53.642;9.956;2022-09-09T11:12:30;20.70;99.90
13699;DHT22;6921;53.642;9.956;2022-09-09T11:14:38;20.60;99.90
13699;DHT22;6921;53.642;9.956;2022-09-09T11:16:47;20.50;99.90
13699;DHT22;6921;53.642;9.956;2022-09-09T11:18:58;19.10;99.90
13699;DHT22;6921;53.642;9.956;2022-09-09T11:21:07;20.60;99.90
13699;DHT22;6921;53.642;9.956;2022-09-09T11:23:15;20.50;99.90
13699;DHT22;6921;53.642;9.956;2022-09-09T11:25:21;20.50;99.90
13699;DHT22;6921;53.642;9.956;2022-09-09T11:27:29;20.60;99.90
13699;DHT22;6921;53.642;9.956;2022-09-09T11:30:11;20.60;99.90
13699;DHT22;6921;53.642;9.956;2022-09-09T11:34:54;20.30;99.90
13699;DHT22;6921;53.642;9.956;2022-09-09T11:37:12;20.70;99.90
13699;DHT22;6921;53.642;9.956;2022-09-09T11:39:38;20.50;99.90
13699;DHT22;6921;53.642;9.956;2022-09-09T11:43:52;20.60;99.90
13699;DHT22;6921;53.642;9.956;2022-09-09T11:45:58;20.80;99.90
13699;DHT22;6921;53.642;9.956;2022-09-09T11:48:03;20.90;99.90
13699;DHT22;6921;53.642;9.956;2022-09-09T11:50:09;21.00;99.90
13699;DHT22;6921;53.642;9.956;2022-09-09T11:52:21;21.00;99.90
13699;DHT22;6921;53.642;9.956;2022-09-09T11:54:29;21.10;99.90
13699;DHT22;6921;53.642;9.956;2022-09-09T11:56:34;21.40;99.90
13699;DHT22;6921;53.642;9.956;2022-09-09T11:58:56;21.60;99.90
13699;DHT22;6921;53.642;9.956;2022-09-09T12:05:09;21.40;99.90
13699;DHT22;6921;53.642;9.956;2022-09-09T12:07:36;21.60;99.90
13699;DHT22;6921;53.642;9.956;2022-09-09T12:09:45;21.40;99.90
13699;DHT22;6921;53.642;9.956;2022-09-09T12:13:55;21.50;99.90
13699;DHT22;6921;53.642;9.956;2022-09-09T12:16:00;21.60;99.90
13699;DHT22;6921;53.642;9.956;2022-09-09T12:18:07;21.70;99.90
13699;DHT22;6921;53.642;9.956;2022-09-09T12:20:20;21.50;99.90
13699;DHT22;6921;53.642;9.956;2022-09-09T12:22:29;21.60;99.90
13699;DHT22;6921;53.642;9.956;2022-09-09T12:24:41;21.80;99.90
13699;DHT22;6921;53.642;9.956;2022-09-09T12:26:49;21.80;99.90
13699;DHT22;6921;53.642;9.956;2022-09-09T12:29:04;21.80;99.90
13699;DHT22;6921;53.642;9.956;2022-09-09T12:31:12;21.50;99.90
13699;DHT22;6921;53.642;9.956;2022-09-09T12:35:27;21.30;99.90
13699;DHT22;6921;53.642;9.956;2022-09-09T12:37:34;21.10;99.90
13699;DHT22;6921;53.642;9.956;2022-09-09T12:39:40;20.90;99.90
13699;DHT22;6921;53.642;9.956;2022-09-09T12:41:54;20.70;99.90
13699;DHT22;6921;53.642;9.956;2022-09-09T12:44:05;20.80;99.90
13699;DHT22;6921;53.642;9.956;2022-09-09T12:46:19;20.90;99.90
13699;DHT22;6921;53.642;9.956;2022-09-09T12:48:31;21.30;99.90
13699;DHT22;6921;53.642;9.956;2022-09-09T12:50:36;21.40;99.90
13699;DHT22;6921;53.642;9.956;2022-09-09T12:54:45;21.30;99.90
13699;DHT22;6921;53.642;9.956;2022-09-09T12:56:49;21.10;99.90
13699;DHT22;6921;53.642;9.956;2022-09-09T12:58:54;20.80;99.90
13699;DHT22;6921;53.642;9.956;2022-09-09T13:00:59;20.60;99.90
13699;DHT22;6921;53.642;9.956;2022-09-09T13:03:17;20.40;99.90
13699;DHT22;6921;53.642;9.956;2022-09-09T13:05:23;20.10;99.90
13699;DHT22;6921;53.642;9.956;2022-09-09T13:07:26;20.10;99.90
13699;DHT22;6921;53.642;9.956;2022-09-09T13:11:36;19.70;99.90
13699;DHT22;6921;53.642;9.956;2022-09-09T13:13:42;19.50;99.90
13699;DHT22;6921;53.642;9.956;2022-09-09T13:15:49;19.40;99.90
13699;DHT22;6921;53.642;9.956;2022-09-09T13:17:57;19.30;99.90
13699;DHT22;6921;53.642;9.956;2022-09-09T13:22:12;19.20;99.90
13699;DHT22;6921;53.642;9.956;2022-09-09T13:24:30;18.90;99.90
13699;DHT22;6921;53.642;9.956;2022-09-09T13:26:34;19.60;99.90
13699;DHT22;6921;53.642;9.956;2022-09-09T13:28:37;18.60;99.90
13699;DHT22;6921;53.642;9.956;2022-09-09T13:34:52;18.50;99.90
13699;DHT22;6921;53.642;9.956;2022-09-09T13:36:59;18.30;99.90
13699;DHT22;6921;53.642;9.956;2022-09-09T13:41:09;17.90;99.90
13699;DHT22;6921;53.642;9.956;2022-09-09T13:43:18;17.60;99.90
13699;DHT22;6921;53.642;9.956;2022-09-09T13:45:26;17.10;99.90
13699;DHT22;6921;53.642;9.956;2022-09-09T13:47:32;16.60;99.90
13699;DHT22;6921;53.642;9.956;2022-09-09T13:49:35;16.80;99.90
13699;DHT22;6921;53.642;9.956;2022-09-09T13:51:41;17.10;99.90
13699;DHT22;6921;53.642;9.956;2022-09-09T13:53:46;16.50;99.90
13699;DHT22;6921;53.642;9.956;2022-09-09T13:55:50;16.80;99.90
13699;DHT22;6921;53.642;9.956;2022-09-09T13:57:55;16.80;99.90
13699;DHT22;6921;53.642;9.956;2022-09-09T13:59:58;16.60;99.90
13699;DHT22;6921;53.642;9.956;2022-09-09T14:02:07;16.60;99.90
13699;DHT22;6921;53.642;9.956;2022-09-09T14:04:10;17.00;99.90
13699;DHT22;6921;53.642;9.956;2022-09-09T14:06:13;16.30;99.90
13699;DHT22;6921;53.642;9.956;2022-09-09T14:08:24;16.60;99.90
13699;DHT22;6921;53.642;9.956;2022-09-09T14:10:27;16.40;99.90
13699;DHT22;6921;53.642;9.956;2022-09-09T14:12:30;16.40;99.90
13699;DHT22;6921;53.642;9.956;2022-09-09T14:14:33;16.70;99.90
13699;DHT22;6921;53.642;9.956;2022-09-09T14:16:36;16.70;99.90
13699;DHT22;6921;53.642;9.956;2022-09-09T14:18:39;16.80;99.90
13699;DHT22;6921;53.642;9.956;2022-09-09T14:22:46;16.50;99.90
13699;DHT22;6921;53.642;9.956;2022-09-09T14:24:50;16.70;99.90
13699;DHT22;6921;53.642;9.956;2022-09-09T14:26:53;16.60;99.90
13699;DHT22;6921;53.642;9.956;2022-09-09T14:28:56;16.60;99.90
13699;DHT22;6921;53.642;9.956;2022-09-09T14:30:59;16.70;99.90
13699;DHT22;6921;53.642;9.956;2022-09-09T14:33:03;17.20;99.90
13699;DHT22;6921;53.642;9.956;2022-09-09T14:35:06;17.20;99.90
13699;DHT22;6921;53.642;9.956;2022-09-09T14:37:09;16.90;99.90
13699;DHT22;6921;53.642;9.956;2022-09-09T14:39:12;17.10;99.90
13699;DHT22;6921;53.642;9.956;2022-09-09T14:41:18;17.20;99.90
13699;DHT22;6921;53.642;9.956;2022-09-09T14:43:24;17.30;99.90
13699;DHT22;6921;53.642;9.956;2022-09-09T14:45:28;17.30;99.90
13699;DHT22;6921;53.642;9.956;2022-09-09T14:47:30;17.30;99.90
13699;DHT22;6921;53.642;9.956;2022-09-09T14:49:33;16.70;99.90
13699;DHT22;6921;53.642;9.956;2022-09-09T14:51:37;16.80;99.90
13699;DHT22;6921;53.642;9.956;2022-09-09T14:53:40;16.90;99.90
13699;DHT22;6921;53.642;9.956;2022-09-09T14:55:43;16.90;99.90
13699;DHT22;6921;53.642;9.956;2022-09-09T14:57:48;16.90;99.90
13699;DHT22;6921;53.642;9.956;2022-09-09T14:59:51;16.90;99.90
13699;DHT22;6921;53.642;9.956;2022-09-09T15:01:55;17.00;99.90
13699;DHT22;6921;53.642;9.956;2022-09-09T15:03:59;17.00;99.90
13699;DHT22;6921;53.642;9.956;2022-09-09T15:06:06;17.00;99.90
13699;DHT22;6921;53.642;9.956;2022-09-09T15:08:10;17.00;99.90
13699;DHT22;6921;53.642;9.956;2022-09-09T15:10:13;16.90;99.90
13699;DHT22;6921;53.642;9.956;2022-09-09T15:12:16;16.90;99.90
13699;DHT22;6921;53.642;9.956;2022-09-09T15:14:21;16.90;99.90
13699;DHT22;6921;53.642;9.956;2022-09-09T15:16:27;16.90;99.90
13699;DHT22;6921;53.642;9.956;2022-09-09T15:20:34;16.80;99.90
13699;DHT22;6921;53.642;9.956;2022-09-09T15:22:41;16.80;99.90
13699;DHT22;6921;53.642;9.956;2022-09-09T15:24:44;16.70;99.90
13699;DHT22;6921;53.642;9.956;2022-09-09T15:26:47;16.70;99.90
13699;DHT22;6921;53.642;9.956;2022-09-09T15:28:50;16.80;99.90
13699;DHT22;6921;53.642;9.956;2022-09-09T15:30:54;16.80;99.90
13699;DHT22;6921;53.642;9.956;2022-09-09T15:32:58;16.80;99.90
13699;DHT22;6921;53.642;9.956;2022-09-09T15:35:01;16.80;99.90
13699;DHT22;6921;53.642;9.956;2022-09-09T15:37:04;16.80;99.90
13699;DHT22;6921;53.642;9.956;2022-09-09T15:39:09;16.80;99.90
13699;DHT22;6921;53.642;9.956;2022-09-09T15:41:14;16.80;99.90
13699;DHT22;6921;53.642;9.956;2022-09-09T15:43:17;16.70;99.90
13699;DHT22;6921;53.642;9.956;2022-09-09T15:45:20;16.80;99.90
13699;DHT22;6921;53.642;9.956;2022-09-09T15:49:28;16.90;99.90
13699;DHT22;6921;53.642;9.956;2022-09-09T15:51:31;16.90;99.90
13699;DHT22;6921;53.642;9.956;2022-09-09T15:53:44;16.90;99.90
13699;DHT22;6921;53.642;9.956;2022-09-09T15:55:47;17.20;99.90
13699;DHT22;6921;53.642;9.956;2022-09-09T15:57:52;17.00;99.90
13699;DHT22;6921;53.642;9.956;2022-09-09T15:59:57;17.00;99.90
13699;DHT22;6921;53.642;9.956;2022-09-09T16:02:01;17.10;99.90
13699;DHT22;6921;53.642;9.956;2022-09-09T16:04:05;17.10;99.90
13699;DHT22;6921;53.642;9.956;2022-09-09T16:06:09;17.70;99.90
13699;DHT22;6921;53.642;9.956;2022-09-09T16:08:12;17.60;99.90
13699;DHT22;6921;53.642;9.956;2022-09-09T16:10:15;17.70;99.90
13699;DHT22;6921;53.642;9.956;2022-09-09T16:12:17;17.40;99.90
13699;DHT22;6921;53.642;9.956;2022-09-09T16:14:20;17.60;99.90
13699;DHT22;6921;53.642;9.956;2022-09-09T16:16:26;17.70;99.90
13699;DHT22;6921;53.642;9.956;2022-09-09T16:18:34;18.30;99.90
13699;DHT22;6921;53.642;9.956;2022-09-09T16:20:38;17.70;99.90
13699;DHT22;6921;53.642;9.956;2022-09-09T16:22:42;17.50;99.90
13699;DHT22;6921;53.642;9.956;2022-09-09T16:24:45;18.00;99.90
13699;DHT22;6921;53.642;9.956;2022-09-09T16:26:51;17.70;99.90
13699;DHT22;6921;53.642;9.956;2022-09-09T16:28:56;17.80;99.90
13699;DHT22;6921;53.642;9.956;2022-09-09T16:31:04;17.90;99.90
13699;DHT22;6921;53.642;9.956;2022-09-09T16:33:07;18.00;99.90
13699;DHT22;6921;53.642;9.956;2022-09-09T16:35:12;17.80;99.90
13699;DHT22;6921;53.642;9.956;2022-09-09T16:37:16;17.80;99.90
13699;DHT22;6921;53.642;9.956;2022-09-09T16:39:20;17.60;99.90
13699;DHT22;6921;53.642;9.956;2022-09-09T16:45:30;17.80;99.90
13699;DHT22;6921;53.642;9.956;2022-09-09T16:51:42;17.70;99.90
13699;DHT22;6921;53.642;9.956;2022-09-09T16:53:46;17.80;99.90
13699;DHT22;6921;53.642;9.956;2022-09-09T16:55:49;17.80;99.90
13699;DHT22;6921;53.642;9.956;2022-09-09T16:59:55;17.90;99.90
13699;DHT22;6921;53.642;9.956;2022-09-09T17:04:10;17.60;99.90
13699;DHT22;6921;53.642;9.956;2022-09-09T17:06:16;17.50;99.90
13699;DHT22;6921;53.642;9.956;2022-09-09T17:10:26;17.40;99.90
13699;DHT22;6921;53.642;9.956;2022-09-09T17:16:36;17.20;99.90
13699;DHT22;6921;53.642;9.956;2022-09-09T17:20:44;17.20;99.90
13699;DHT22;6921;53.642;9.956;2022-09-09T17:22:48;17.10;99.90
13699;DHT22;6921;53.642;9.956;2022-09-09T17:26:56;17.10;99.90
13699;DHT22;6921;53.642;9.956;2022-09-09T17:29:00;18.50;99.90
13699;DHT22;6921;53.642;9.956;2022-09-09T17:31:07;17.00;99.90
13699;DHT22;6921;53.642;9.956;2022-09-09T17:33:10;16.70;99.90
13699;DHT22;6921;53.642;9.956;2022-09-09T17:43:32;16.70;99.90
13699;DHT22;6921;53.642;9.956;2022-09-09T17:53:50;16.60;99.90
13699;DHT22;6921;53.642;9.956;2022-09-09T18:00:04;16.20;99.90
13699;DHT22;6921;53.642;9.956;2022-09-09T18:02:09;16.40;99.90
13699;DHT22;6921;53.642;9.956;2022-09-09T18:04:14;16.40;99.90
13699;DHT22;6921;53.642;9.956;2022-09-09T18:06:19;16.40;99.90
13699;DHT22;6921;53.642;9.956;2022-09-09T18:10:25;16.20;99.90
13699;DHT22;6921;53.642;9.956;2022-09-09T18:16:38;16.10;99.90
13699;DHT22;6921;53.642;9.956;2022-09-09T18:29:00;16.00;99.90
13699;DHT22;6921;53.642;9.956;2022-09-09T18:31:06;15.90;99.90
13699;DHT22;6921;53.642;9.956;2022-09-09T18:33:11;15.90;99.90
13699;DHT22;6921;53.642;9.956;2022-09-09T18:39:22;15.90;99.90
13699;DHT22;6921;53.642;9.956;2022-09-09T18:41:27;15.80;99.90
13699;DHT22;6921;53.642;9.956;2022-09-09T18:43:31;15.80;99.90
13699;DHT22;6921;53.642;9.956;2022-09-09T18:49:44;15.70;99.90
13699;DHT22;6921;53.642;9.956;2022-09-09T18:53:52;15.80;99.90
13699;DHT22;6921;53.642;9.956;2022-09-09T18:55:59;15.70;99.90
13699;DHT22;6921;53.642;9.956;2022-09-09T19:00:06;15.80;99.90
13699;DHT22;6921;53.642;9.956;2022-09-09T19:04:18;15.70;99.90
13699;DHT22;6921;53.642;9.956;2022-09-09T19:06:25;15.70;99.90
13699;DHT22;6921;53.642;9.956;2022-09-09T19:10:35;15.70;99.90
13699;DHT22;6921;53.642;9.956;2022-09-09T19:22:57;15.80;99.90
13699;DHT22;6921;53.642;9.956;2022-09-09T19:27:05;15.80;99.90
13699;DHT22;6921;53.642;9.956;2022-09-09T19:29:10;15.80;99.90
13699;DHT22;6921;53.642;9.956;2022-09-09T19:31:16;15.80;99.90
13699;DHT22;6921;53.642;9.956;2022-09-09T19:39:30;15.80;99.90
13699;DHT22;6921;53.642;9.956;2022-09-09T19:41:35;15.80;99.90
13699;DHT22;6921;53.642;9.956;2022-09-09T19:53:58;15.60;99.90
13699;DHT22;6921;53.642;9.956;2022-09-09T19:56:05;15.60;99.90
13699;DHT22;6921;53.642;9.956;2022-09-09T20:06:28;15.50;99.90
13699;DHT22;6921;53.642;9.956;2022-09-09T20:12:39;15.40;99.90
13699;DHT22;6921;53.642;9.956;2022-09-09T20:18:52;15.30;99.90
13699;DHT22;6921;53.642;9.956;2022-09-09T20:20:57;15.30;99.90
13699;DHT22;6921;53.642;9.956;2022-09-09T20:25:05;15.20;99.90
13699;DHT22;6921;53.642;9.956;2022-09-09T20:29:15;15.30;99.90
13699;DHT22;6921;53.642;9.956;2022-09-09T20:31:19;15.30;99.90
13699;DHT22;6921;53.642;9.956;2022-09-09T20:35:27;15.20;99.90
13699;DHT22;6921;53.642;9.956;2022-09-09T20:41:38;15.20;99.90
13699;DHT22;6921;53.642;9.956;2022-09-09T20:43:44;15.10;99.90
13699;DHT22;6921;53.642;9.956;2022-09-09T20:45:50;15.10;99.90
13699;DHT22;6921;53.642;9.956;2022-09-09T20:54:06;15.20;99.90
13699;DHT22;6921;53.642;9.956;2022-09-09T21:02:20;15.20;99.90
13699;DHT22;6921;53.642;9.956;2022-09-09T21:18:53;15.20;99.90
13699;DHT22;6921;53.642;9.956;2022-09-09T21:33:18;15.20;99.90
13699;DHT22;6921;53.642;9.956;2022-09-09T21:51:54;15.10;99.90
13699;DHT22;6921;53.642;9.956;2022-09-09T21:56:03;15.10;99.90
13699;DHT22;6921;53.642;9.956;2022-09-09T22:00:11;15.00;99.90
13699;DHT22;6921;53.642;9.956;2022-09-09T22:08:29;15.10;99.90
13699;DHT22;6921;53.642;9.956;2022-09-09T22:25:00;15.00;99.90
13699;DHT22;6921;53.642;9.956;2022-09-09T22:41:28;15.00;99.90
13699;DHT22;6921;53.642;9.956;2022-09-09T22:55:55;14.80;99.90
13699;DHT22;6921;53.642;9.956;2022-09-09T22:58:00;14.80;99.90